sensor_id;sensor_type;location;lat;lon;timestamp;temperature;humidity
13652;DHT22;6899;51.546;6.912;2022-11-15T00:00:42;9.50;99.90
13652;DHT22;6899;51.546;6.912;2022-11-15T00:03:15;9.50;99.90
13652;DHT22;6899;51.546;6.912;2022-11-15T00:05:42;9.60;99.90
13652;DHT22;6899;51.546;6.912;2022-11-15T00:08:10;9.60;99.90
13652;DHT22;6899;51.546;6.912;2022-11-15T00:10:38;9.60;99.90
13652;DHT22;6899;51.546;6.912;2022-11-15T00:13:05;9.60;99.90
13652;DHT22;6899;51.546;6.912;2022-11-15T00:15:34;9.60;99.90
13652;DHT22;6899;51.546;6.912;2022-11-15T00:18:02;9.70;99.90
13652;DHT22;6899;51.546;6.912;2022-11-15T00:20:31;9.70;99.90
13652;DHT22;6899;51.546;6.912;2022-11-15T00:22:58;9.70;99.90
13652;DHT22;6899;51.546;6.912;2022-11-15T00:25:25;9.80;99.90
13652;DHT22;6899;51.546;6.912;2022-11-15T00:27:55;9.80;99.90
13652;DHT22;6899;51.546;6.912;2022-11-15T00:30:23;9.80;99.90
13652;DHT22;6899;51.546;6.912;2022-11-15T00:32:50;9.90;99.90
13652;DHT22;6899;51.546;6.912;2022-11-15T00:35:18;9.90;99.90
13652;DHT22;6899;51.546;6.912;2022-11-15T00:37:54;10.00;99.90
13652;DHT22;6899;51.546;6.912;2022-11-15T00:40:21;10.00;99.90
13652;DHT22;6899;51.546;6.912;2022-11-15T00:42:48;10.00;99.90
13652;DHT22;6899;51.546;6.912;2022-11-15T00:45:15;10.10;99.90
13652;DHT22;6899;51.546;6.912;2022-11-15T00:47:44;10.20;99.90
13652;DHT22;6899;51.546;6.912;2022-11-15T00:50:12;10.20;99.90
13652;DHT22;6899;51.546;6.912;2022-11-15T00:52:40;10.30;99.90
13652;DHT22;6899;51.546;6.912;2022-11-15T00:55:09;10.30;99.90
13652;DHT22;6899;51.546;6.912;2022-11-15T00:57:40;10.30;99.90
13652;DHT22;6899;51.546;6.912;2022-11-15T01:00:11;10.40;99.90
13652;DHT22;6899;51.546;6.912;2022-11-15T01:02:41;10.40;99.90
13652;DHT22;6899;51.546;6.912;2022-11-15T01:05:08;10.50;99.90
13652;DHT22;6899;51.546;6.912;2022-11-15T01:07:38;10.50;99.90
13652;DHT22;6899;51.546;6.912;2022-11-15T01:10:08;10.50;99.90
13652;DHT22;6899;51.546;6.912;2022-11-15T01:12:39;10.50;99.90
13652;DHT22;6899;51.546;6.912;2022-11-15T01:15:17;10.50;99.90
13652;DHT22;6899;51.546;6.912;2022-11-15T01:17:44;10.60;99.90
13652;DHT22;6899;51.546;6.912;2022-11-15T01:20:11;10.50;99.90
13652;DHT22;6899;51.546;6.912;2022-11-15T01:22:38;10.60;99.90
13652;DHT22;6899;51.546;6.912;2022-11-15T01:25:05;10.70;99.90
13652;DHT22;6899;51.546;6.912;2022-11-15T01:27:33;10.70;99.90
13652;DHT22;6899;51.546;6.912;2022-11-15T01:30:00;10.80;99.90
13652;DHT22;6899;51.546;6.912;2022-11-15T01:32:27;10.80;99.90
13652;DHT22;6899;51.546;6.912;2022-11-15T01:34:54;10.80;99.90
13652;DHT22;6899;51.546;6.912;2022-11-15T01:37:21;10.80;99.90
13652;DHT22;6899;51.546;6.912;2022-11-15T01:39:47;10.90;99.90
13652;DHT22;6899;51.546;6.912;2022-11-15T01:42:20;10.90;99.90
13652;DHT22;6899;51.546;6.912;2022-11-15T01:44:49;11.00;99.90
13652;DHT22;6899;51.546;6.912;2022-11-15T01:47:18;11.00;99.90
13652;DHT22;6899;51.546;6.912;2022-11-15T01:49:51;11.10;99.90
13652;DHT22;6899;51.546;6.912;2022-11-15T01:52:23;11.10;99.90
13652;DHT22;6899;51.546;6.912;2022-11-15T01:54:54;11.10;99.90
13652;DHT22;6899;51.546;6.912;2022-11-15T01:57:22;11.20;99.90
13652;DHT22;6899;51.546;6.912;2022-11-15T01:59:51;11.20;99.90
13652;DHT22;6899;51.546;6.912;2022-11-15T02:02:18;11.20;99.90
13652;DHT22;6899;51.546;6.912;2022-11-15T02:04:46;11.10;99.90
13652;DHT22;6899;51.546;6.912;2022-11-15T02:07:15;11.20;99.90
13652;DHT22;6899;51.546;6.912;2022-11-15T02:09:44;11.10;99.90
13652;DHT22;6899;51.546;6.912;2022-11-15T02:12:13;11.20;99.90
13652;DHT22;6899;51.546;6.912;2022-11-15T02:14:42;11.20;99.90
13652;DHT22;6899;51.546;6.912;2022-11-15T02:17:32;11.30;99.90
13652;DHT22;6899;51.546;6.912;2022-11-15T02:20:27;11.30;99.90
13652;DHT22;6899;51.546;6.912;2022-11-15T02:26:29;11.40;99.90
13652;DHT22;6899;51.546;6.912;2022-11-15T02:29:05;11.40;99.90
13652;DHT22;6899;51.546;6.912;2022-11-15T02:31:43;11.50;99.90
13652;DHT22;6899;51.546;6.912;2022-11-15T02:34:17;11.50;99.90
13652;DHT22;6899;51.546;6.912;2022-11-15T02:36:54;11.50;99.90
13652;DHT22;6899;51.546;6.912;2022-11-15T02:39:27;11.60;99.90
13652;DHT22;6899;51.546;6.912;2022-11-15T02:42:00;11.60;99.90
13652;DHT22;6899;51.546;6.912;2022-11-15T02:44:36;11.60;99.90
13652;DHT22;6899;51.546;6.912;2022-11-15T02:47:10;11.60;99.90
13652;DHT22;6899;51.546;6.912;2022-11-15T02:49:45;11.60;99.90
13652;DHT22;6899;51.546;6.912;2022-11-15T02:52:15;11.60;99.90
13652;DHT22;6899;51.546;6.912;2022-11-15T02:54:42;11.60;99.90
13652;DHT22;6899;51.546;6.912;2022-11-15T02:57:16;11.70;99.90
13652;DHT22;6899;51.546;6.912;2022-11-15T03:00:01;11.70;99.90
13652;DHT22;6899;51.546;6.912;2022-11-15T03:02:55;11.70;99.90
13652;DHT22;6899;51.546;6.912;2022-11-15T03:05:28;11.70;99.90
13652;DHT22;6899;51.546;6.912;2022-11-15T03:08:02;11.70;99.90
13652;DHT22;6899;51.546;6.912;2022-11-15T03:10:41;11.70;99.90
13652;DHT22;6899;51.546;6.912;2022-11-15T03:13:19;11.70;99.90
13652;DHT22;6899;51.546;6.912;2022-11-15T03:15:53;11.70;99.90
13652;DHT22;6899;51.546;6.912;2022-11-15T03:18:29;11.70;99.90
13652;DHT22;6899;51.546;6.912;2022-11-15T03:21:00;11.60;99.90
13652;DHT22;6899;51.546;6.912;2022-11-15T03:23:29;11.60;99.90
13652;DHT22;6899;51.546;6.912;2022-11-15T03:25:58;11.60;99.90
13652;DHT22;6899;51.546;6.912;2022-11-15T03:28:34;11.60;99.90
13652;DHT22;6899;51.546;6.912;2022-11-15T03:31:02;11.60;99.90
13652;DHT22;6899;51.546;6.912;2022-11-15T03:33:55;11.70;99.90
13652;DHT22;6899;51.546;6.912;2022-11-15T03:36:25;11.70;99.90
13652;DHT22;6899;51.546;6.912;2022-11-15T03:38:53;11.70;99.90
13652;DHT22;6899;51.546;6.912;2022-11-15T03:41:24;11.80;99.90
13652;DHT22;6899;51.546;6.912;2022-11-15T03:43:59;11.80;99.90
13652;DHT22;6899;51.546;6.912;2022-11-15T03:46:33;11.80;99.90
13652;DHT22;6899;51.546;6.912;2022-11-15T03:49:05;11.80;99.90
13652;DHT22;6899;51.546;6.912;2022-11-15T03:51:36;11.70;99.90
13652;DHT22;6899;51.546;6.912;2022-11-15T03:54:04;11.80;99.90
13652;DHT22;6899;51.546;6.912;2022-11-15T03:56:31;11.90;99.90
13652;DHT22;6899;51.546;6.912;2022-11-15T03:58:58;11.90;99.90
13652;DHT22;6899;51.546;6.912;2022-11-15T04:01:24;11.90;99.90
13652;DHT22;6899;51.546;6.912;2022-11-15T04:03:51;12.00;99.90
13652;DHT22;6899;51.546;6.912;2022-11-15T04:06:19;12.00;99.90
13652;DHT22;6899;51.546;6.912;2022-11-15T04:08:46;12.00;99.90
13652;DHT22;6899;51.546;6.912;2022-11-15T04:11:13;12.10;99.90
13652;DHT22;6899;51.546;6.912;2022-11-15T04:13:40;12.10;99.90
13652;DHT22;6899;51.546;6.912;2022-11-15T04:16:06;12.10;99.90
13652;DHT22;6899;51.546;6.912;2022-11-15T04:18:33;12.20;99.90
13652;DHT22;6899;51.546;6.912;2022-11-15T04:21:01;12.10;99.90
13652;DHT22;6899;51.546;6.912;2022-11-15T04:23:47;12.20;99.90
13652;DHT22;6899;51.546;6.912;2022-11-15T04:26:31;12.20;99.90
13652;DHT22;6899;51.546;6.912;2022-11-15T04:28:58;12.30;99.90
13652;DHT22;6899;51.546;6.912;2022-11-15T04:31:42;12.30;99.90
13652;DHT22;6899;51.546;6.912;2022-11-15T04:34:09;12.20;99.90
13652;DHT22;6899;51.546;6.912;2022-11-15T04:36:36;12.30;99.90
13652;DHT22;6899;51.546;6.912;2022-11-15T04:39:22;12.20;99.90
13652;DHT22;6899;51.546;6.912;2022-11-15T04:41:48;12.20;99.90
13652;DHT22;6899;51.546;6.912;2022-11-15T04:44:15;12.20;99.90
13652;DHT22;6899;51.546;6.912;2022-11-15T04:46:43;12.20;99.90
13652;DHT22;6899;51.546;6.912;2022-11-15T04:49:10;12.20;99.90
13652;DHT22;6899;51.546;6.912;2022-11-15T04:51:37;12.30;99.90
13652;DHT22;6899;51.546;6.912;2022-11-15T04:54:03;12.20;99.90
13652;DHT22;6899;51.546;6.912;2022-11-15T04:56:32;12.20;99.90
13652;DHT22;6899;51.546;6.912;2022-11-15T04:59:01;12.30;99.90
13652;DHT22;6899;51.546;6.912;2022-11-15T05:01:28;12.20;99.90
13652;DHT22;6899;51.546;6.912;2022-11-15T05:03:55;12.20;99.90
13652;DHT22;6899;51.546;6.912;2022-11-15T05:06:39;12.20;99.90
13652;DHT22;6899;51.546;6.912;2022-11-15T05:09:06;12.20;99.90
13652;DHT22;6899;51.546;6.912;2022-11-15T05:11:35;12.20;99.90
13652;DHT22;6899;51.546;6.912;2022-11-15T05:14:02;12.20;99.90
13652;DHT22;6899;51.546;6.912;2022-11-15T05:16:28;12.20;99.90
13652;DHT22;6899;51.546;6.912;2022-11-15T05:18:55;12.20;99.90
13652;DHT22;6899;51.546;6.912;2022-11-15T05:21:22;12.30;99.90
13652;DHT22;6899;51.546;6.912;2022-11-15T05:23:49;12.30;99.90
13652;DHT22;6899;51.546;6.912;2022-11-15T05:26:17;12.30;99.90
13652;DHT22;6899;51.546;6.912;2022-11-15T05:28:46;12.20;99.90
13652;DHT22;6899;51.546;6.912;2022-11-15T05:31:16;12.30;99.90
13652;DHT22;6899;51.546;6.912;2022-11-15T05:33:45;12.20;99.90
13652;DHT22;6899;51.546;6.912;2022-11-15T05:36:15;12.20;99.90
13652;DHT22;6899;51.546;6.912;2022-11-15T05:38:44;12.20;99.90
13652;DHT22;6899;51.546;6.912;2022-11-15T05:41:11;12.10;99.90
13652;DHT22;6899;51.546;6.912;2022-11-15T05:43:40;12.10;99.90
13652;DHT22;6899;51.546;6.912;2022-11-15T05:46:10;12.10;99.90
13652;DHT22;6899;51.546;6.912;2022-11-15T05:48:42;12.10;99.90
13652;DHT22;6899;51.546;6.912;2022-11-15T05:51:09;12.00;99.90
13652;DHT22;6899;51.546;6.912;2022-11-15T05:53:38;12.00;99.90
13652;DHT22;6899;51.546;6.912;2022-11-15T05:56:06;12.00;99.90
13652;DHT22;6899;51.546;6.912;2022-11-15T05:58:33;11.90;99.90
13652;DHT22;6899;51.546;6.912;2022-11-15T06:01:00;11.90;99.90
13652;DHT22;6899;51.546;6.912;2022-11-15T06:03:28;11.90;99.90
13652;DHT22;6899;51.546;6.912;2022-11-15T06:05:58;11.90;99.90
13652;DHT22;6899;51.546;6.912;2022-11-15T06:08:25;11.90;99.90
13652;DHT22;6899;51.546;6.912;2022-11-15T06:10:52;11.90;99.90
13652;DHT22;6899;51.546;6.912;2022-11-15T06:13:19;11.80;99.90
13652;DHT22;6899;51.546;6.912;2022-11-15T06:15:46;11.80;99.90
13652;DHT22;6899;51.546;6.912;2022-11-15T06:18:12;11.80;99.90
13652;DHT22;6899;51.546;6.912;2022-11-15T06:20:41;11.80;99.90
13652;DHT22;6899;51.546;6.912;2022-11-15T06:23:07;11.80;99.90
13652;DHT22;6899;51.546;6.912;2022-11-15T06:25:34;11.80;99.90
13652;DHT22;6899;51.546;6.912;2022-11-15T06:28:02;11.80;99.90
13652;DHT22;6899;51.546;6.912;2022-11-15T06:30:28;11.80;99.90
13652;DHT22;6899;51.546;6.912;2022-11-15T06:32:59;11.70;99.90
13652;DHT22;6899;51.546;6.912;2022-11-15T06:35:27;11.70;99.90
13652;DHT22;6899;51.546;6.912;2022-11-15T06:37:56;11.70;99.90
13652;DHT22;6899;51.546;6.912;2022-11-15T06:40:23;11.70;99.90
13652;DHT22;6899;51.546;6.912;2022-11-15T06:42:57;11.70;99.90
13652;DHT22;6899;51.546;6.912;2022-11-15T06:45:24;11.60;99.90
13652;DHT22;6899;51.546;6.912;2022-11-15T06:47:51;11.70;99.90
13652;DHT22;6899;51.546;6.912;2022-11-15T06:50:20;11.80;99.90
13652;DHT22;6899;51.546;6.912;2022-11-15T06:52:47;11.70;99.90
13652;DHT22;6899;51.546;6.912;2022-11-15T06:55:15;11.80;99.90
13652;DHT22;6899;51.546;6.912;2022-11-15T06:57:50;11.80;99.90
13652;DHT22;6899;51.546;6.912;2022-11-15T07:00:18;11.90;99.90
13652;DHT22;6899;51.546;6.912;2022-11-15T07:02:46;11.90;99.90
13652;DHT22;6899;51.546;6.912;2022-11-15T07:05:16;11.80;99.90
13652;DHT22;6899;51.546;6.912;2022-11-15T07:07:45;11.80;99.90
13652;DHT22;6899;51.546;6.912;2022-11-15T07:10:20;11.60;99.90
13652;DHT22;6899;51.546;6.912;2022-11-15T07:12:49;11.60;99.90
13652;DHT22;6899;51.546;6.912;2022-11-15T07:15:16;11.60;99.90
13652;DHT22;6899;51.546;6.912;2022-11-15T07:17:44;11.50;99.90
13652;DHT22;6899;51.546;6.912;2022-11-15T07:20:11;11.50;99.90
13652;DHT22;6899;51.546;6.912;2022-11-15T07:22:39;11.40;99.90
13652;DHT22;6899;51.546;6.912;2022-11-15T07:25:06;11.40;99.90
13652;DHT22;6899;51.546;6.912;2022-11-15T07:27:34;11.40;99.90
13652;DHT22;6899;51.546;6.912;2022-11-15T07:30:02;11.40;99.90
13652;DHT22;6899;51.546;6.912;2022-11-15T07:32:29;11.30;99.90
13652;DHT22;6899;51.546;6.912;2022-11-15T07:34:58;11.50;99.90
13652;DHT22;6899;51.546;6.912;2022-11-15T07:37:25;11.40;99.90
13652;DHT22;6899;51.546;6.912;2022-11-15T07:39:52;11.40;99.90
13652;DHT22;6899;51.546;6.912;2022-11-15T07:42:19;11.30;99.90
13652;DHT22;6899;51.546;6.912;2022-11-15T07:45:05;11.30;99.90
13652;DHT22;6899;51.546;6.912;2022-11-15T07:47:32;11.40;99.90
13652;DHT22;6899;51.546;6.912;2022-11-15T07:49:59;11.40;99.90
13652;DHT22;6899;51.546;6.912;2022-11-15T07:52:26;11.40;99.90
13652;DHT22;6899;51.546;6.912;2022-11-15T07:54:53;11.60;99.90
13652;DHT22;6899;51.546;6.912;2022-11-15T07:57:20;11.60;99.90
13652;DHT22;6899;51.546;6.912;2022-11-15T07:59:47;11.70;99.90
13652;DHT22;6899;51.546;6.912;2022-11-15T08:02:15;11.80;99.90
13652;DHT22;6899;51.546;6.912;2022-11-15T08:04:43;11.90;99.90
13652;DHT22;6899;51.546;6.912;2022-11-15T08:07:10;12.10;99.90
13652;DHT22;6899;51.546;6.912;2022-11-15T08:09:37;12.20;99.90
13652;DHT22;6899;51.546;6.912;2022-11-15T08:12:04;12.30;99.90
13652;DHT22;6899;51.546;6.912;2022-11-15T08:14:31;12.40;99.90
13652;DHT22;6899;51.546;6.912;2022-11-15T08:16:58;12.50;99.90
13652;DHT22;6899;51.546;6.912;2022-11-15T08:19:26;12.60;99.90
13652;DHT22;6899;51.546;6.912;2022-11-15T08:21:53;12.50;99.90
13652;DHT22;6899;51.546;6.912;2022-11-15T08:24:20;12.20;99.90
13652;DHT22;6899;51.546;6.912;2022-11-15T08:26:49;11.80;99.90
13652;DHT22;6899;51.546;6.912;2022-11-15T08:29:22;11.30;99.90
13652;DHT22;6899;51.546;6.912;2022-11-15T08:31:49;11.20;99.90
13652;DHT22;6899;51.546;6.912;2022-11-15T08:34:16;11.00;99.90
13652;DHT22;6899;51.546;6.912;2022-11-15T08:36:44;10.80;99.90
13652;DHT22;6899;51.546;6.912;2022-11-15T08:39:11;10.80;99.90
13652;DHT22;6899;51.546;6.912;2022-11-15T08:41:38;10.60;99.90
13652;DHT22;6899;51.546;6.912;2022-11-15T08:44:05;10.60;99.90
13652;DHT22;6899;51.546;6.912;2022-11-15T08:46:32;10.60;99.90
13652;DHT22;6899;51.546;6.912;2022-11-15T08:48:59;10.60;99.90
13652;DHT22;6899;51.546;6.912;2022-11-15T08:51:26;10.70;99.90
13652;DHT22;6899;51.546;6.912;2022-11-15T08:53:54;10.70;99.90
13652;DHT22;6899;51.546;6.912;2022-11-15T08:56:21;10.60;99.90
13652;DHT22;6899;51.546;6.912;2022-11-15T08:58:50;10.60;99.90
13652;DHT22;6899;51.546;6.912;2022-11-15T09:01:19;10.60;99.90
13652;DHT22;6899;51.546;6.912;2022-11-15T09:03:46;10.50;99.90
13652;DHT22;6899;51.546;6.912;2022-11-15T09:06:14;10.50;99.90
13652;DHT22;6899;51.546;6.912;2022-11-15T09:08:46;10.60;99.90
13652;DHT22;6899;51.546;6.912;2022-11-15T09:11:15;10.60;99.90
13652;DHT22;6899;51.546;6.912;2022-11-15T09:13:45;10.80;99.90
13652;DHT22;6899;51.546;6.912;2022-11-15T09:16:12;10.70;99.90
13652;DHT22;6899;51.546;6.912;2022-11-15T09:18:40;10.70;99.90
13652;DHT22;6899;51.546;6.912;2022-11-15T09:21:08;10.70;99.90
13652;DHT22;6899;51.546;6.912;2022-11-15T09:23:37;10.90;99.90
13652;DHT22;6899;51.546;6.912;2022-11-15T09:26:05;11.10;99.90
13652;DHT22;6899;51.546;6.912;2022-11-15T09:28:36;11.30;99.90
13652;DHT22;6899;51.546;6.912;2022-11-15T09:31:07;11.70;99.90
13652;DHT22;6899;51.546;6.912;2022-11-15T09:33:34;12.00;99.90
13652;DHT22;6899;51.546;6.912;2022-11-15T09:36:03;12.20;99.90
13652;DHT22;6899;51.546;6.912;2022-11-15T09:38:30;12.30;99.90
13652;DHT22;6899;51.546;6.912;2022-11-15T09:41:25;12.50;99.90
13652;DHT22;6899;51.546;6.912;2022-11-15T09:44:17;12.30;99.90
13652;DHT22;6899;51.546;6.912;2022-11-15T09:46:57;12.30;99.90
13652;DHT22;6899;51.546;6.912;2022-11-15T09:49:33;12.40;99.90
13652;DHT22;6899;51.546;6.912;2022-11-15T09:52:00;12.40;99.90
13652;DHT22;6899;51.546;6.912;2022-11-15T09:54:30;12.60;99.90
13652;DHT22;6899;51.546;6.912;2022-11-15T09:57:03;12.70;99.90
13652;DHT22;6899;51.546;6.912;2022-11-15T09:59:51;13.00;99.90
13652;DHT22;6899;51.546;6.912;2022-11-15T10:02:36;13.30;99.90
13652;DHT22;6899;51.546;6.912;2022-11-15T10:05:10;13.30;99.90
13652;DHT22;6899;51.546;6.912;2022-11-15T10:07:44;13.20;99.90
13652;DHT22;6899;51.546;6.912;2022-11-15T10:10:20;12.90;99.90
13652;DHT22;6899;51.546;6.912;2022-11-15T10:12:51;12.80;99.90
13652;DHT22;6899;51.546;6.912;2022-11-15T10:15:20;12.60;99.90
13652;DHT22;6899;51.546;6.912;2022-11-15T10:18:06;12.50;99.90
13652;DHT22;6899;51.546;6.912;2022-11-15T10:20:41;12.40;99.90
13652;DHT22;6899;51.546;6.912;2022-11-15T10:23:13;12.40;99.90
13652;DHT22;6899;51.546;6.912;2022-11-15T10:25:46;12.40;99.90
13652;DHT22;6899;51.546;6.912;2022-11-15T10:28:25;12.30;99.90
13652;DHT22;6899;51.546;6.912;2022-11-15T10:31:11;12.40;99.90
13652;DHT22;6899;51.546;6.912;2022-11-15T10:33:47;12.50;99.90
13652;DHT22;6899;51.546;6.912;2022-11-15T10:36:17;12.50;99.90
13652;DHT22;6899;51.546;6.912;2022-11-15T10:38:56;12.50;99.90
13652;DHT22;6899;51.546;6.912;2022-11-15T10:41:31;12.50;99.90
13652;DHT22;6899;51.546;6.912;2022-11-15T10:44:25;12.50;99.90
13652;DHT22;6899;51.546;6.912;2022-11-15T10:47:26;12.50;99.90
13652;DHT22;6899;51.546;6.912;2022-11-15T10:50:06;12.60;99.90
13652;DHT22;6899;51.546;6.912;2022-11-15T10:52:35;12.60;99.90
13652;DHT22;6899;51.546;6.912;2022-11-15T10:55:20;12.80;99.90
13652;DHT22;6899;51.546;6.912;2022-11-15T10:57:50;12.80;99.90
13652;DHT22;6899;51.546;6.912;2022-11-15T11:00:29;13.00;99.90
13652;DHT22;6899;51.546;6.912;2022-11-15T11:02:59;13.00;99.90
13652;DHT22;6899;51.546;6.912;2022-11-15T11:05:33;13.00;99.90
13652;DHT22;6899;51.546;6.912;2022-11-15T11:08:04;13.10;99.90
13652;DHT22;6899;51.546;6.912;2022-11-15T11:10:32;13.10;99.90
13652;DHT22;6899;51.546;6.912;2022-11-15T11:13:13;13.00;99.90
13652;DHT22;6899;51.546;6.912;2022-11-15T11:15:42;13.00;99.90
13652;DHT22;6899;51.546;6.912;2022-11-15T11:18:18;13.00;99.90
13652;DHT22;6899;51.546;6.912;2022-11-15T11:20:56;13.20;99.90
13652;DHT22;6899;51.546;6.912;2022-11-15T11:23:37;13.00;99.90
13652;DHT22;6899;51.546;6.912;2022-11-15T11:26:22;13.00;99.90
13652;DHT22;6899;51.546;6.912;2022-11-15T11:28:57;13.10;99.90
13652;DHT22;6899;51.546;6.912;2022-11-15T11:31:32;13.20;99.90
13652;DHT22;6899;51.546;6.912;2022-11-15T11:34:15;13.20;99.90
13652;DHT22;6899;51.546;6.912;2022-11-15T11:36:49;13.20;99.90
13652;DHT22;6899;51.546;6.912;2022-11-15T11:39:24;13.30;99.90
13652;DHT22;6899;51.546;6.912;2022-11-15T11:42:03;13.30;99.90
13652;DHT22;6899;51.546;6.912;2022-11-15T11:44:43;13.30;99.90
13652;DHT22;6899;51.546;6.912;2022-11-15T11:47:11;13.30;99.90
13652;DHT22;6899;51.546;6.912;2022-11-15T11:49:49;13.30;99.90
13652;DHT22;6899;51.546;6.912;2022-11-15T11:52:20;13.20;99.90
13652;DHT22;6899;51.546;6.912;2022-11-15T11:54:58;13.30;99.90
13652;DHT22;6899;51.546;6.912;2022-11-15T11:57:34;13.30;99.90
13652;DHT22;6899;51.546;6.912;2022-11-15T12:00:13;13.30;99.90
13652;DHT22;6899;51.546;6.912;2022-11-15T12:02:44;13.30;99.90
13652;DHT22;6899;51.546;6.912;2022-11-15T12:05:21;13.30;99.90
13652;DHT22;6899;51.546;6.912;2022-11-15T12:07:53;13.20;99.90
13652;DHT22;6899;51.546;6.912;2022-11-15T12:10:25;13.30;99.90
13652;DHT22;6899;51.546;6.912;2022-11-15T12:13:00;13.30;99.90
13652;DHT22;6899;51.546;6.912;2022-11-15T12:15:32;13.40;99.90
13652;DHT22;6899;51.546;6.912;2022-11-15T12:18:00;13.40;99.90
13652;DHT22;6899;51.546;6.912;2022-11-15T12:20:36;13.40;99.90
13652;DHT22;6899;51.546;6.912;2022-11-15T12:23:11;13.30;99.90
13652;DHT22;6899;51.546;6.912;2022-11-15T12:25:45;13.40;99.90
13652;DHT22;6899;51.546;6.912;2022-11-15T12:28:25;13.50;99.90
13652;DHT22;6899;51.546;6.912;2022-11-15T12:31:00;13.60;99.90
13652;DHT22;6899;51.546;6.912;2022-11-15T12:33:30;13.80;99.90
13652;DHT22;6899;51.546;6.912;2022-11-15T12:36:04;13.60;99.90
13652;DHT22;6899;51.546;6.912;2022-11-15T12:38:54;13.50;99.90
13652;DHT22;6899;51.546;6.912;2022-11-15T12:41:23;13.40;99.90
13652;DHT22;6899;51.546;6.912;2022-11-15T12:43:50;13.30;99.90
13652;DHT22;6899;51.546;6.912;2022-11-15T12:46:22;13.30;99.90
13652;DHT22;6899;51.546;6.912;2022-11-15T12:48:53;13.20;99.90
13652;DHT22;6899;51.546;6.912;2022-11-15T12:54:53;13.10;99.90
13652;DHT22;6899;51.546;6.912;2022-11-15T12:57:38;13.10;99.90
13652;DHT22;6899;51.546;6.912;2022-11-15T13:03:24;13.10;99.90
13652;DHT22;6899;51.546;6.912;2022-11-15T13:08:50;13.30;99.90
13652;DHT22;6899;51.546;6.912;2022-11-15T13:11:50;13.40;99.90
13652;DHT22;6899;51.546;6.912;2022-11-15T13:14:46;13.50;99.90
13652;DHT22;6899;51.546;6.912;2022-11-15T13:17:31;13.50;99.90
13652;DHT22;6899;51.546;6.912;2022-11-15T13:20:21;13.50;99.90
13652;DHT22;6899;51.546;6.912;2022-11-15T13:22:50;13.50;99.90
13652;DHT22;6899;51.546;6.912;2022-11-15T13:25:21;13.50;99.90
13652;DHT22;6899;51.546;6.912;2022-11-15T13:27:52;13.50;99.90
13652;DHT22;6899;51.546;6.912;2022-11-15T13:30:23;13.50;99.90
13652;DHT22;6899;51.546;6.912;2022-11-15T13:32:50;13.40;99.90
13652;DHT22;6899;51.546;6.912;2022-11-15T13:35:21;13.30;99.90
13652;DHT22;6899;51.546;6.912;2022-11-15T13:37:53;13.30;99.90
13652;DHT22;6899;51.546;6.912;2022-11-15T13:40:24;13.20;99.90
13652;DHT22;6899;51.546;6.912;2022-11-15T13:43:25;13.20;99.90
13652;DHT22;6899;51.546;6.912;2022-11-15T13:46:05;13.20;99.90
13652;DHT22;6899;51.546;6.912;2022-11-15T13:48:32;13.20;99.90
13652;DHT22;6899;51.546;6.912;2022-11-15T13:51:00;13.40;99.90
13652;DHT22;6899;51.546;6.912;2022-11-15T13:53:28;13.50;99.90
13652;DHT22;6899;51.546;6.912;2022-11-15T13:55:58;13.50;99.90
13652;DHT22;6899;51.546;6.912;2022-11-15T13:58:26;13.50;99.90
13652;DHT22;6899;51.546;6.912;2022-11-15T14:00:59;13.60;99.90
13652;DHT22;6899;51.546;6.912;2022-11-15T14:03:28;13.60;99.90
13652;DHT22;6899;51.546;6.912;2022-11-15T14:06:04;13.60;99.90
13652;DHT22;6899;51.546;6.912;2022-11-15T14:08:33;13.60;99.90
13652;DHT22;6899;51.546;6.912;2022-11-15T14:11:11;13.60;99.90
13652;DHT22;6899;51.546;6.912;2022-11-15T14:13:41;13.70;99.90
13652;DHT22;6899;51.546;6.912;2022-11-15T14:16:16;13.60;99.90
13652;DHT22;6899;51.546;6.912;2022-11-15T14:18:46;13.70;99.90
13652;DHT22;6899;51.546;6.912;2022-11-15T14:21:17;13.70;99.90
13652;DHT22;6899;51.546;6.912;2022-11-15T14:23:44;13.80;99.90
13652;DHT22;6899;51.546;6.912;2022-11-15T14:26:27;13.90;99.90
13652;DHT22;6899;51.546;6.912;2022-11-15T14:28:56;14.00;99.90
13652;DHT22;6899;51.546;6.912;2022-11-15T14:31:27;14.00;99.90
13652;DHT22;6899;51.546;6.912;2022-11-15T14:33:54;14.10;99.90
13652;DHT22;6899;51.546;6.912;2022-11-15T14:36:21;14.10;99.90
13652;DHT22;6899;51.546;6.912;2022-11-15T14:38:48;14.10;99.90
13652;DHT22;6899;51.546;6.912;2022-11-15T14:41:24;14.20;99.90
13652;DHT22;6899;51.546;6.912;2022-11-15T14:43:53;14.10;99.90
13652;DHT22;6899;51.546;6.912;2022-11-15T14:46:22;13.80;99.90
13652;DHT22;6899;51.546;6.912;2022-11-15T14:48:52;13.80;99.90
13652;DHT22;6899;51.546;6.912;2022-11-15T14:51:33;13.70;99.90
13652;DHT22;6899;51.546;6.912;2022-11-15T14:54:09;13.60;99.90
13652;DHT22;6899;51.546;6.912;2022-11-15T14:56:42;13.50;99.90
13652;DHT22;6899;51.546;6.912;2022-11-15T14:59:10;13.30;99.90
13652;DHT22;6899;51.546;6.912;2022-11-15T15:01:41;13.20;99.90
13652;DHT22;6899;51.546;6.912;2022-11-15T15:04:09;13.00;99.90
13652;DHT22;6899;51.546;6.912;2022-11-15T15:06:37;13.00;99.90
13652;DHT22;6899;51.546;6.912;2022-11-15T15:09:04;12.80;99.90
13652;DHT22;6899;51.546;6.912;2022-11-15T15:11:31;12.80;99.90
13652;DHT22;6899;51.546;6.912;2022-11-15T15:14:01;12.60;99.90
13652;DHT22;6899;51.546;6.912;2022-11-15T15:16:28;12.50;99.90
13652;DHT22;6899;51.546;6.912;2022-11-15T15:18:56;12.30;99.90
13652;DHT22;6899;51.546;6.912;2022-11-15T15:21:24;12.30;99.90
13652;DHT22;6899;51.546;6.912;2022-11-15T15:23:55;12.40;99.90
13652;DHT22;6899;51.546;6.912;2022-11-15T15:26:27;12.50;99.90
13652;DHT22;6899;51.546;6.912;2022-11-15T15:28:54;12.40;99.90
13652;DHT22;6899;51.546;6.912;2022-11-15T15:31:22;12.60;99.90
13652;DHT22;6899;51.546;6.912;2022-11-15T15:33:52;12.50;99.90
13652;DHT22;6899;51.546;6.912;2022-11-15T15:36:23;12.60;99.90
13652;DHT22;6899;51.546;6.912;2022-11-15T15:38:50;12.50;99.90
13652;DHT22;6899;51.546;6.912;2022-11-15T15:41:19;12.50;99.90
13652;DHT22;6899;51.546;6.912;2022-11-15T15:43:48;12.50;99.90
13652;DHT22;6899;51.546;6.912;2022-11-15T15:46:19;12.50;99.90
13652;DHT22;6899;51.546;6.912;2022-11-15T15:48:49;12.50;99.90
13652;DHT22;6899;51.546;6.912;2022-11-15T15:51:16;12.50;99.90
13652;DHT22;6899;51.546;6.912;2022-11-15T15:53:44;12.40;99.90
13652;DHT22;6899;51.546;6.912;2022-11-15T15:56:11;12.50;99.90
13652;DHT22;6899;51.546;6.912;2022-11-15T15:58:40;12.40;99.90
13652;DHT22;6899;51.546;6.912;2022-11-15T16:01:08;12.50;99.90
13652;DHT22;6899;51.546;6.912;2022-11-15T16:03:35;12.40;99.90
13652;DHT22;6899;51.546;6.912;2022-11-15T16:06:03;12.40;99.90
13652;DHT22;6899;51.546;6.912;2022-11-15T16:08:32;12.40;99.90
13652;DHT22;6899;51.546;6.912;2022-11-15T16:11:26;12.30;99.90
13652;DHT22;6899;51.546;6.912;2022-11-15T16:13:54;12.40;99.90
13652;DHT22;6899;51.546;6.912;2022-11-15T16:16:28;12.40;99.90
13652;DHT22;6899;51.546;6.912;2022-11-15T16:19:00;12.30;99.90
13652;DHT22;6899;51.546;6.912;2022-11-15T16:21:33;12.30;99.90
13652;DHT22;6899;51.546;6.912;2022-11-15T16:24:03;12.20;99.90
13652;DHT22;6899;51.546;6.912;2022-11-15T16:26:50;12.20;99.90